Time;durP1;ratioP1;P1;durP2;ratioP2;P2;SDS_P1;SDS_P2;PMS_P1;PMS_P2;Temp;Humidity;BMP_temperature;BMP_pressure;BME280_temperature;BME280_humidity;BME280_pressure;Samples;Min_cycle;Max_cycle;Signal;HPM_P1;HPM_P2
2022/01/04 00:01:13;;;;;;;;;6.25;4.00;;;;;13.82;76.31;100038.41;5072621;27;45211;-49
2022/01/04 00:03:40;;;;;;;;;6.75;5.00;;;;;13.80;76.55;100029.75;5073308;27;46184;-49
2022/01/04 00:06:06;;;;;;;;;5.00;5.00;;;;;13.81;76.50;100029.63;5071174;27;45520;-50
2022/01/04 00:08:32;;;;;;;;;5.25;5.00;;;;;13.80;76.60;100022.66;5072695;28;45402;-50
2022/01/04 00:11:08;;;;;;;;;4.75;4.00;;;;;13.82;76.55;100025.16;5074668;28;46633;-52
2022/01/04 00:13:34;;;;;;;;;3.00;2.00;;;;;13.76;76.28;100018.59;5072360;28;46200;-50
2022/01/04 00:15:59;;;;;;;;;4.50;4.00;;;;;13.69;76.30;100014.78;5073158;27;45502;-53
2022/01/04 00:18:26;;;;;;;;;7.75;6.25;;;;;13.63;76.15;100000.25;5075430;27;45229;-53
2022/01/04 00:20:52;;;;;;;;;3.00;2.75;;;;;13.49;75.21;99999.72;5071986;28;45294;-49
2022/01/04 00:23:18;;;;;;;;;4.75;3.00;;;;;13.36;75.06;99990.19;5076484;27;45412;-53
2022/01/04 00:25:44;;;;;;;;;4.00;2.00;;;;;13.19;75.17;99977.44;5071005;27;45519;-50
2022/01/04 00:28:11;;;;;;;;;3.25;3.25;;;;;13.09;75.45;99981.81;5072136;28;45810;-51
2022/01/04 00:30:38;;;;;;;;;3.00;3.00;;;;;13.04;75.55;99973.44;5071056;27;45625;-48
2022/01/04 00:33:08;;;;;;;;;4.75;4.75;;;;;13.00;75.49;99970.19;5070537;27;46565;-49
2022/01/04 00:35:34;;;;;;;;;5.00;4.00;;;;;12.99;75.81;99962.38;5070036;28;45550;-51
2022/01/04 00:38:00;;;;;;;;;2.75;2.75;;;;;12.96;75.57;99952.91;5072409;27;45616;-50
2022/01/04 00:40:26;;;;;;;;;3.25;3.00;;;;;12.98;75.30;99940.41;5069841;28;45437;-48
2022/01/04 00:42:55;;;;;;;;;3.00;3.00;;;;;12.91;75.12;99947.16;5069054;28;45448;-48
2022/01/04 00:45:21;;;;;;;;;2.00;2.00;;;;;12.83;75.00;99941.66;5069253;27;45430;-52
2022/01/04 00:50:19;;;;;;;;;0.00;0.00;;;;;12.73;74.64;99925.72;5070229;28;45706;-51
2022/01/04 00:52:44;;;;;;;;;1.25;1.00;;;;;12.62;74.76;99922.25;5071187;28;45833;-50
2022/01/04 00:55:10;;;;;;;;;0.25;0.25;;;;;12.54;74.90;99921.06;5072628;28;45470;-53
2022/01/04 00:57:35;;;;;;;;;1.00;1.00;;;;;12.47;75.02;99922.50;5071936;28;45509;-52
2022/01/04 01:00:01;;;;;;;;;1.00;1.00;;;;;12.37;75.30;99911.00;5073216;28;46305;-53
2022/01/04 01:02:26;;;;;;;;;3.25;1.50;;;;;12.30;75.45;99904.53;5070252;28;45826;-49
2022/01/04 01:04:52;;;;;;;;;1.25;1.25;;;;;12.25;75.85;99904.06;5069044;28;45552;-52
2022/01/04 01:07:17;;;;;;;;;2.00;2.00;;;;;12.24;76.03;99899.72;5068431;28;45680;-51
2022/01/04 01:10:00;;;;;;;;;2.00;2.00;;;;;12.22;75.72;99889.28;5069086;28;45508;-50
2022/01/04 01:12:25;;;;;;;;;4.00;3.00;;;;;12.21;75.92;99884.16;5070447;28;45688;-49
2022/01/04 01:14:51;;;;;;;;;4.00;4.00;;;;;12.14;75.80;99875.88;5069575;28;45820;-49
2022/01/04 01:17:17;;;;;;;;;2.50;1.00;;;;;12.05;75.97;99871.31;5068700;28;45826;-52
2022/01/04 01:19:42;;;;;;;;;3.50;2.00;;;;;12.02;76.04;99867.13;5068667;28;45488;-49
2022/01/04 01:22:08;;;;;;;;;2.50;2.50;;;;;12.02;76.23;99866.28;5067935;28;46144;-49
2022/01/04 01:24:33;;;;;;;;;1.25;1.25;;;;;12.02;76.12;99867.13;5068886;28;45468;-48
2022/01/04 01:26:58;;;;;;;;;1.00;1.00;;;;;12.04;76.11;99858.25;5068502;28;45621;-51
2022/01/04 01:29:24;;;;;;;;;3.25;2.00;;;;;12.05;75.75;99857.28;5069268;28;45556;-52
2022/01/04 01:31:49;;;;;;;;;3.50;2.00;;;;;11.96;75.56;99857.06;5069041;28;46321;-50
2022/01/04 01:34:15;;;;;;;;;1.00;1.00;;;;;11.87;75.81;99851.66;5070872;28;45641;-50
2022/01/04 01:36:40;;;;;;;;;3.00;3.00;;;;;11.83;76.09;99844.94;5070729;28;45566;-51
2022/01/04 01:39:06;;;;;;;;;3.00;3.00;;;;;11.81;76.04;99838.94;5068441;28;45566;-47
2022/01/04 01:41:31;;;;;;;;;4.00;2.00;;;;;11.79;76.55;99833.78;5068242;28;47618;-48
2022/01/04 01:43:57;;;;;;;;;3.25;2.25;;;;;11.83;76.20;99822.03;5069372;28;45553;-49
2022/01/04 01:46:22;;;;;;;;;3.50;3.50;;;;;11.84;76.04;99820.22;5068887;28;45487;-47
2022/01/04 01:48:48;;;;;;;;;3.00;3.00;;;;;11.80;75.60;99819.66;5068498;28;45434;-49
2022/01/04 01:51:16;;;;;;;;;4.00;2.75;;;;;11.80;75.75;99811.72;5067772;28;46286;-52
2022/01/04 01:53:42;;;;;;;;;3.00;1.50;;;;;11.79;76.02;99806.53;5068849;28;45312;-50
2022/01/04 01:56:08;;;;;;;;;2.50;2.00;;;;;11.75;75.44;99796.22;5070466;28;45437;-51
2022/01/04 01:58:34;;;;;;;;;1.00;1.00;;;;;11.71;75.48;99794.78;5069063;28;45792;-49
2022/01/04 02:00:59;;;;;;;;;1.50;1.00;;;;;11.70;76.05;99789.66;5070478;28;46217;-51
2022/01/04 02:03:25;;;;;;;;;0.00;0.00;;;;;11.69;75.68;99785.31;5070613;28;45482;-49
2022/01/04 02:05:51;;;;;;;;;1.00;1.00;;;;;11.67;75.86;99784.59;5070567;28;45556;-48
2022/01/04 02:08:18;;;;;;;;;0.00;0.00;;;;;11.64;75.63;99795.41;5068871;27;45576;-47
2022/01/04 02:10:44;;;;;;;;;0.00;0.00;;;;;11.63;75.92;99785.81;5068861;28;45382;-49
2022/01/04 02:13:10;;;;;;;;;1.00;1.00;;;;;11.63;76.12;99785.81;5077850;28;46605;-49
2022/01/04 02:15:35;;;;;;;;;0.25;0.25;;;;;11.66;76.14;99785.56;5070840;28;45602;-48
2022/01/04 02:18:01;;;;;;;;;0.75;0.75;;;;;11.66;76.02;99772.38;5069809;28;45488;-46
2022/01/04 02:20:27;;;;;;;;;0.00;0.00;;;;;11.65;76.12;99763.63;5069605;28;45516;-48
2022/01/04 02:22:54;;;;;;;;;0.25;0.25;;;;;11.65;76.00;99762.78;5068746;28;45407;-48
2022/01/04 02:25:20;;;;;;;;;0.00;0.00;;;;;11.64;75.99;99747.91;5067189;28;45496;-50
2022/01/04 02:27:45;;;;;;;;;0.00;0.00;;;;;11.64;76.14;99756.66;5067960;28;45449;-49
2022/01/04 02:30:14;;;;;;;;;1.00;0.00;;;;;11.65;75.77;99746.94;5067868;28;45458;-53
2022/01/04 02:32:41;;;;;;;;;0.00;0.00;;;;;11.63;75.98;99748.88;5070491;28;45362;-48
2022/01/04 02:35:07;;;;;;;;;0.00;0.00;;;;;11.63;75.83;99739.16;5069451;28;45485;-47
2022/01/04 02:37:33;;;;;;;;;0.00;0.00;;;;;11.64;75.92;99734.72;5069520;28;45384;-46
2022/01/04 02:39:59;;;;;;;;;0.00;0.00;;;;;11.60;75.84;99723.56;5067409;28;45448;-48
2022/01/04 02:42:25;;;;;;;;;0.00;0.00;;;;;11.59;76.19;99713.16;5068976;28;45453;-48
2022/01/04 02:44:50;;;;;;;;;0.00;0.00;;;;;11.60;76.08;99712.19;5068561;28;45937;-50
2022/01/04 02:47:16;;;;;;;;;0.50;0.00;;;;;11.62;76.23;99705.00;5070261;28;45370;-47
2022/01/04 02:49:42;;;;;;;;;0.00;0.00;;;;;11.64;75.81;99703.91;5069923;28;45494;-47
2022/01/04 02:52:08;;;;;;;;;0.00;0.00;;;;;11.61;75.68;99688.34;5069744;28;45381;-47
2022/01/04 02:54:34;;;;;;;;;2.00;0.00;;;;;11.58;76.23;99685.09;5069306;28;45596;-47
2022/01/04 02:56:59;;;;;;;;;0.00;0.00;;;;;11.56;76.06;99687.03;5069110;28;45557;-48
2022/01/04 02:59:25;;;;;;;;;0.00;0.00;;;;;11.53;75.94;99674.06;5066845;28;45630;-48
2022/01/04 03:01:50;;;;;;;;;0.00;0.00;;;;;11.50;76.12;99666.41;5066905;28;45374;-48
2022/01/04 03:04:16;;;;;;;;;0.00;0.00;;;;;11.51;76.17;99668.09;5067018;28;46352;-50
2022/01/04 03:06:41;;;;;;;;;0.00;0.00;;;;;11.52;75.90;99664.47;5067667;28;45734;-51
2022/01/04 03:09:07;;;;;;;;;0.00;0.00;;;;;11.53;76.16;99661.72;5068052;28;46214;-49
2022/01/04 03:11:33;;;;;;;;;0.00;0.00;;;;;11.52;76.05;99656.56;5070065;28;45748;-49
2022/01/04 03:13:59;;;;;;;;;0.00;0.00;;;;;11.53;76.22;99650.34;5070017;28;45589;-49
2022/01/04 03:16:25;;;;;;;;;0.00;0.00;;;;;11.52;76.30;99643.38;5068272;28;45691;-50
2022/01/04 03:19:03;;;;;;;;;0.00;0.00;;;;;11.48;75.90;99641.97;5068207;28;45793;-47
2022/01/04 03:21:34;;;;;;;;;0.00;0.00;;;;;11.50;76.30;99642.69;5066754;28;45864;-50
2022/01/04 03:24:00;;;;;;;;;0.00;0.00;;;;;11.49;76.00;99641.84;5068479;28;45506;-51
2022/01/04 03:26:26;;;;;;;;;0.00;0.00;;;;;11.45;76.19;99633.34;5065590;28;45590;-50
2022/01/04 03:28:52;;;;;;;;;0.00;0.00;;;;;11.44;76.30;99626.38;5066977;28;46067;-49
2022/01/04 03:31:17;;;;;;;;;0.00;0.00;;;;;11.44;76.19;99621.09;5067418;28;45525;-48
2022/01/04 03:33:43;;;;;;;;;0.00;0.00;;;;;11.44;76.31;99621.09;5068447;28;45762;-46
2022/01/04 03:36:09;;;;;;;;;0.00;0.00;;;;;11.40;76.59;99629.41;5071896;28;45679;-50
2022/01/04 03:38:35;;;;;;;;;0.00;0.00;;;;;11.34;76.32;99625.44;5067204;28;45886;-48
2022/01/04 03:41:00;;;;;;;;;0.00;0.00;;;;;11.34;76.69;99628.09;5065304;28;45298;-49
2022/01/04 03:43:27;;;;;;;;;0.00;0.00;;;;;11.35;77.00;99618.38;5068344;27;45751;-51
2022/01/04 03:45:53;;;;;;;;;0.00;0.00;;;;;11.40;76.64;99614.41;5068882;28;45930;-48
2022/01/04 03:48:18;;;;;;;;;0.00;0.00;;;;;11.38;76.55;99616.34;5068240;28;45342;-49
2022/01/04 03:50:44;;;;;;;;;0.00;0.00;;;;;11.35;76.80;99611.31;5071404;28;45517;-52
2022/01/04 03:53:09;;;;;;;;;0.00;0.00;;;;;11.35;76.97;99613.94;5068595;28;45417;-49
2022/01/04 03:55:35;;;;;;;;;0.00;0.00;;;;;11.36;76.94;99609.50;5070535;28;45609;-52
2022/01/04 03:58:01;;;;;;;;;1.00;0.00;;;;;11.34;77.10;99609.63;5069686;28;46769;-49
2022/01/04 04:00:27;;;;;;;;;0.00;0.00;;;;;11.39;77.25;99615.38;5065603;28;45496;-51
2022/01/04 04:02:53;;;;;;;;;0.75;0.00;;;;;11.37;77.11;99611.16;5067280;28;45480;-47
2022/01/04 04:05:19;;;;;;;;;0.00;0.00;;;;;11.37;76.52;99611.16;5064756;28;45421;-49
2022/01/04 04:07:44;;;;;;;;;0.50;0.00;;;;;11.27;76.71;99600.53;5066746;28;45652;-49
2022/01/04 04:10:10;;;;;;;;;0.00;0.00;;;;;11.23;77.01;99604.41;5069434;28;45415;-48
2022/01/04 04:12:36;;;;;;;;;0.00;0.00;;;;;11.21;77.19;99608.09;5071171;28;45442;-49
2022/01/04 04:15:07;;;;;;;;;0.00;0.00;;;;;11.25;77.24;99612.16;5073664;28;45519;-53
2022/01/04 04:17:33;;;;;;;;;1.00;0.00;;;;;11.19;76.58;99605.59;5071678;28;45448;-51
2022/01/04 04:19:59;;;;;;;;;0.00;0.00;;;;;11.17;77.16;99610.16;5073860;28;45465;-48
2022/01/04 04:22:25;;;;;;;;;0.00;0.00;;;;;11.15;76.89;99606.81;5071410;28;45585;-52
2022/01/04 04:24:50;;;;;;;;;0.00;0.00;;;;;11.15;77.36;99612.91;5069377;28;45470;-52
2022/01/04 04:27:15;;;;;;;;;0.00;0.00;;;;;11.19;77.07;99610.84;5070009;28;46159;-50
2022/01/04 04:29:41;;;;;;;;;0.00;0.00;;;;;11.25;77.11;99609.53;5068930;28;45323;-47
2022/01/04 04:32:08;;;;;;;;;0.00;0.00;;;;;11.23;76.55;99607.03;5071381;28;45496;-50
2022/01/04 04:34:33;;;;;;;;;0.00;0.00;;;;;11.22;76.92;99615.03;5073288;28;45453;-50
2022/01/04 04:36:59;;;;;;;;;0.00;0.00;;;;;11.22;76.78;99617.66;5073323;28;45595;-52
2022/01/04 04:39:25;;;;;;;;;0.00;0.00;;;;;11.21;76.93;99616.00;5068756;28;45464;-49
2022/01/04 04:41:52;;;;;;;;;1.00;0.00;;;;;11.16;77.08;99613.75;5071171;28;45359;-48
2022/01/04 04:44:18;;;;;;;;;0.00;0.00;;;;;11.19;77.32;99619.59;5072141;28;45767;-50
2022/01/04 04:46:44;;;;;;;;;0.00;0.00;;;;;11.18;76.53;99625.00;5071231;28;46135;-51
2022/01/04 04:49:10;;;;;;;;;0.00;0.00;;;;;11.13;77.01;99621.88;5072265;28;45769;-49
2022/01/04 04:51:35;;;;;;;;;1.00;0.00;;;;;11.12;77.16;99630.75;5070072;28;45367;-50
2022/01/04 04:54:01;;;;;;;;;0.00;0.00;;;;;11.12;76.90;99621.03;5070092;28;45624;-49
2022/01/04 04:56:26;;;;;;;;;0.00;0.00;;;;;11.12;77.12;99628.13;5070516;28;45940;-51
2022/01/04 04:58:52;;;;;;;;;0.00;0.00;;;;;11.09;76.65;99631.00;5068261;28;45353;-51
2022/01/04 05:01:17;;;;;;;;;1.00;0.00;;;;;11.05;76.58;99629.56;5070814;28;45620;-49
2022/01/04 05:03:43;;;;;;;;;0.00;0.00;;;;;11.02;76.61;99632.44;5070533;28;45476;-50
2022/01/04 05:06:08;;;;;;;;;0.00;0.00;;;;;10.97;76.45;99631.94;5078002;28;47716;-49
2022/01/04 05:08:34;;;;;;;;;0.00;0.00;;;;;10.94;76.67;99633.03;5068538;28;45448;-53
2022/01/04 05:10:59;;;;;;;;;0.00;0.00;;;;;10.95;77.13;99641.78;5070366;28;45658;-50
2022/01/04 05:13:25;;;;;;;;;0.00;0.00;;;;;10.92;76.85;99644.69;5069525;28;45447;-52
2022/01/04 05:15:50;;;;;;;;;0.00;0.00;;;;;10.87;76.89;99645.84;5071028;28;45567;-48
2022/01/04 05:18:16;;;;;;;;;0.00;0.00;;;;;10.86;76.95;99645.97;5072267;28;45498;-49
2022/01/04 05:20:41;;;;;;;;;0.00;0.00;;;;;10.83;76.78;99652.34;5070020;28;45717;-52
2022/01/04 05:23:07;;;;;;;;;0.00;0.00;;;;;10.82;76.94;99644.53;5071375;28;45568;-52
2022/01/04 05:25:32;;;;;;;;;0.00;0.00;;;;;10.84;77.44;99650.53;5069164;28;45803;-54
2022/01/04 05:27:58;;;;;;;;;0.25;0.00;;;;;10.84;76.66;99654.00;5068192;28;45388;-49
2022/01/04 05:30:23;;;;;;;;;0.00;0.00;;;;;10.82;76.45;99661.19;5069734;28;45374;-51
2022/01/04 05:32:49;;;;;;;;;0.00;0.00;;;;;10.81;76.88;99656.88;5072355;28;46337;-49
2022/01/04 05:35:14;;;;;;;;;0.00;0.00;;;;;10.82;76.17;99647.16;5070920;28;46201;-51
2022/01/04 05:37:40;;;;;;;;;0.00;0.00;;;;;10.78;76.39;99648.38;5071080;28;45395;-49
2022/01/04 05:40:06;;;;;;;;;0.00;0.00;;;;;10.81;76.95;99645.50;5069656;28;45470;-52
2022/01/04 05:42:32;;;;;;;;;1.00;0.00;;;;;10.82;76.33;99649.78;5070690;28;45514;-51
2022/01/04 05:44:57;;;;;;;;;0.00;0.00;;;;;10.80;75.95;99647.28;5070040;28;46103;-50
2022/01/04 05:47:24;;;;;;;;;0.00;0.00;;;;;10.78;76.00;99637.84;5072896;28;45424;-49
2022/01/04 05:49:51;;;;;;;;;0.00;0.00;;;;;10.77;76.25;99637.00;5069998;28;45427;-49
2022/01/04 05:52:16;;;;;;;;;0.00;0.00;;;;;10.83;76.34;99638.31;5069838;28;45568;-49
2022/01/04 05:54:43;;;;;;;;;0.00;0.00;;;;;10.84;75.88;99634.72;5069587;28;45678;-47
2022/01/04 05:57:09;;;;;;;;;0.00;0.00;;;;;10.82;75.91;99636.63;5068689;28;45468;-48
2022/01/04 05:59:34;;;;;;;;;0.00;0.00;;;;;10.87;76.56;99642.38;5068402;28;45747;-48
2022/01/04 06:02:02;;;;;;;;;0.00;0.00;;;;;10.93;75.99;99643.72;5066969;27;45394;-54
2022/01/04 06:04:27;;;;;;;;;0.00;0.00;;;;;10.96;75.97;99643.47;5068583;28;46046;-54
2022/01/04 06:06:54;;;;;;;;;0.00;0.00;;;;;10.97;76.11;99640.69;5068504;28;45564;-50
2022/01/04 06:09:27;;;;;;;;;0.00;0.00;;;;;10.97;76.17;99632.78;5068963;28;45539;-51
2022/01/04 06:17:08;;;;;;;;;0.00;0.00;;;;;11.07;75.75;99630.28;5069186;28;45324;-52
2022/01/04 06:19:33;;;;;;;;;0.00;0.00;;;;;11.06;75.77;99626.81;5069947;28;45457;-51
2022/01/04 06:21:59;;;;;;;;;0.00;0.00;;;;;11.09;75.76;99633.63;5070698;28;45493;-51
2022/01/04 06:24:24;;;;;;;;;0.00;0.00;;;;;11.11;75.74;99643.09;5068293;28;45393;-53
2022/01/04 06:26:50;;;;;;;;;0.00;0.00;;;;;11.12;75.33;99657.09;5069428;28;45366;-52
2022/01/04 06:29:16;;;;;;;;;0.00;0.00;;;;;11.10;75.32;99661.66;5069199;28;45451;-51
2022/01/04 06:31:42;;;;;;;;;1.50;1.00;;;;;11.08;75.19;99667.06;5069986;28;45591;-49
2022/01/04 06:34:07;;;;;;;;;1.50;0.00;;;;;11.07;75.37;99675.94;5070115;28;45802;-52
2022/01/04 06:36:33;;;;;;;;;0.00;0.00;;;;;11.03;75.51;99671.00;5074295;28;45400;-50
2022/01/04 06:38:59;;;;;;;;;2.75;0.00;;;;;11.02;75.24;99671.97;5067148;27;45387;-52
2022/01/04 06:41:24;;;;;;;;;0.00;0.00;;;;;11.03;75.89;99677.13;5064098;28;45422;-50
2022/01/04 06:43:50;;;;;;;;;2.25;2.00;;;;;11.04;75.38;99672.69;5060106;28;46114;-48
2022/01/04 06:46:15;;;;;;;;;1.00;1.00;;;;;10.99;75.46;99677.50;5060276;28;45516;-49
2022/01/04 06:48:42;;;;;;;;;1.00;1.00;;;;;10.98;75.35;99681.06;5060432;28;45414;-47
2022/01/04 06:51:08;;;;;;;;;1.00;1.00;;;;;10.93;75.42;99681.44;5059902;28;45593;-49
2022/01/04 06:53:34;;;;;;;;;1.75;1.75;;;;;10.92;75.88;99685.03;5060090;28;45581;-47
2022/01/04 06:56:00;;;;;;;;;1.00;1.00;;;;;10.90;75.71;99698.31;5061282;28;45651;-50
2022/01/04 06:58:25;;;;;;;;;0.50;0.50;;;;;10.90;75.44;99700.97;5074636;28;45656;-52
2022/01/04 07:00:51;;;;;;;;;2.00;1.00;;;;;10.87;75.79;99719.63;5080776;28;45360;-50
2022/01/04 07:03:16;;;;;;;;;1.00;1.00;;;;;10.87;76.08;99711.72;5080168;28;45418;-50
2022/01/04 07:05:42;;;;;;;;;1.00;1.00;;;;;10.84;75.92;99713.75;5080460;28;45465;-52
2022/01/04 07:08:07;;;;;;;;;0.75;0.75;;;;;10.83;75.64;99712.94;5080138;28;45424;-53
2022/01/04 07:10:33;;;;;;;;;1.75;1.00;;;;;10.81;75.72;99712.19;5080692;28;45379;-55
2022/01/04 07:12:58;;;;;;;;;4.00;3.00;;;;;10.82;75.69;99703.34;5080350;28;46176;-56
2022/01/04 07:15:24;;;;;;;;;2.00;2.00;;;;;10.84;75.64;99711.13;5080268;28;45800;-56
2022/01/04 07:17:50;;;;;;;;;4.50;1.00;;;;;10.85;75.52;99720.72;5079898;28;45439;-55
2022/01/04 07:20:15;;;;;;;;;2.75;1.25;;;;;10.86;75.59;99714.47;5080345;28;45440;-56
2022/01/04 07:22:41;;;;;;;;;4.00;1.75;;;;;10.88;75.74;99704.66;5079571;28;46159;-56
2022/01/04 07:25:07;;;;;;;;;1.25;1.25;;;;;10.86;75.58;99709.22;5071622;28;45512;-56
2022/01/04 07:27:33;;;;;;;;;4.00;2.00;;;;;10.84;75.56;99701.44;5073510;28;45399;-57
2022/01/04 07:29:59;;;;;;;;;5.00;2.00;;;;;10.83;75.16;99696.28;5079790;28;45537;-56
2022/01/04 07:32:25;;;;;;;;;1.75;1.25;;;;;10.83;75.37;99718.19;5069188;27;45494;-56
2022/01/04 07:34:50;;;;;;;;;8.00;3.75;;;;;10.80;75.43;99715.78;5068765;28;45493;-56
2022/01/04 07:37:16;;;;;;;;;5.00;3.00;;;;;10.80;75.26;99730.75;5067894;27;45401;-57
2022/01/04 07:39:42;;;;;;;;;4.50;3.00;;;;;10.83;75.74;99731.38;5069981;28;45249;-57
2022/01/04 07:42:07;;;;;;;;;5.25;2.75;;;;;10.87;75.68;99734.59;5069176;28;45411;-56
2022/01/04 07:44:33;;;;;;;;;9.00;4.00;;;;;10.86;75.22;99733.75;5067627;28;45431;-57
2022/01/04 07:46:59;;;;;;;;;4.25;2.75;;;;;10.88;75.49;99738.91;5072565;28;45300;-57
2022/01/04 07:49:25;;;;;;;;;4.75;4.75;;;;;10.88;75.36;99745.00;5074364;28;46291;-57
2022/01/04 07:51:51;;;;;;;;;8.00;4.25;;;;;10.90;74.95;99750.16;5071594;28;45889;-57
2022/01/04 07:54:17;;;;;;;;;4.75;4.50;;;;;10.92;75.26;99756.16;5069821;28;45426;-57
2022/01/04 07:56:43;;;;;;;;;11.00;8.75;;;;;10.94;75.08;99761.31;5073112;28;45303;-54
2022/01/04 07:59:08;;;;;;;;;11.00;7.25;;;;;10.95;75.01;99761.19;5075010;28;45414;-57
2022/01/04 08:01:34;;;;;;;;;6.25;4.75;;;;;10.95;75.31;99758.56;5071449;28;45330;-58
2022/01/04 08:04:04;;;;;;;;;5.25;3.75;;;;;10.94;74.73;99766.59;5072677;28;45207;-56
2022/01/04 08:06:31;;;;;;;;;6.75;5.00;;;;;10.95;74.65;99781.44;5070084;28;45381;-58
2022/01/04 08:08:57;;;;;;;;;6.75;4.00;;;;;10.92;74.85;99795.69;5074062;28;45544;-58
2022/01/04 08:11:23;;;;;;;;;7.75;5.00;;;;;10.92;75.25;99798.31;5074060;28;45475;-58
2022/01/04 08:13:48;;;;;;;;;6.50;6.00;;;;;10.94;75.26;99808.75;5073063;28;45446;-56
2022/01/04 08:16:15;;;;;;;;;7.25;5.00;;;;;10.95;75.08;99811.25;5069927;28;45492;-55
2022/01/04 08:18:42;;;;;;;;;4.00;4.00;;;;;10.94;75.21;99814.84;5071943;27;45659;-56
2022/01/04 08:21:07;;;;;;;;;7.00;4.00;;;;;10.93;75.04;99821.09;5072927;28;45274;-55
2022/01/04 08:23:33;;;;;;;;;3.50;3.00;;;;;10.96;75.03;99827.91;5069903;28;45406;-57
2022/01/04 08:25:58;;;;;;;;;4.25;2.50;;;;;10.98;75.25;99820.72;5069848;27;45442;-57
2022/01/04 08:28:25;;;;;;;;;8.00;8.00;;;;;10.99;75.05;99815.34;5074076;28;45312;-55
2022/01/04 08:30:50;;;;;;;;;7.00;4.75;;;;;11.01;75.10;99813.44;5070760;27;46203;-55
2022/01/04 08:33:16;;;;;;;;;5.00;4.00;;;;;11.07;74.93;99806.88;5074824;28;45504;-53
2022/01/04 08:35:42;;;;;;;;;3.00;2.00;;;;;11.09;75.11;99807.59;5070123;27;45338;-52
2022/01/04 08:38:08;;;;;;;;;3.50;3.50;;;;;11.11;74.70;99819.69;5072721;28;45465;-48
2022/01/04 08:40:33;;;;;;;;;2.50;2.00;;;;;11.08;74.57;99829.63;5073055;28;45360;-55
2022/01/04 08:42:59;;;;;;;;;0.00;0.00;;;;;11.01;74.18;99825.78;5076628;28;45342;-56
2022/01/04 08:45:24;;;;;;;;;0.75;0.75;;;;;10.99;74.59;99833.81;5072487;28;45271;-50
2022/01/04 08:47:51;;;;;;;;;3.00;1.00;;;;;10.98;74.36;99831.25;5074046;28;45437;-62
2022/01/04 08:50:19;;;;;;;;;3.00;1.25;;;;;10.98;74.37;99829.50;5075353;28;46161;-61
2022/01/04 08:52:45;;;;;;;;;1.75;1.00;;;;;10.99;74.74;99840.88;5071151;28;45469;-62
2022/01/04 08:55:11;;;;;;;;;1.50;1.25;;;;;11.00;75.05;99839.91;5072514;28;45379;-62
2022/01/04 08:57:38;;;;;;;;;5.00;5.00;;;;;11.01;74.91;99845.06;5072649;28;45410;-61
2022/01/04 09:00:05;;;;;;;;;7.25;3.75;;;;;11.05;74.78;99846.50;5070444;28;45484;-61
2022/01/04 09:02:33;;;;;;;;;6.00;6.00;;;;;11.05;74.97;99851.75;5071258;28;45462;-61
2022/01/04 09:04:59;;;;;;;;;3.00;3.00;;;;;11.05;74.67;99843.03;5074941;28;45255;-61
2022/01/04 09:07:25;;;;;;;;;4.00;4.00;;;;;11.03;74.47;99847.56;5070565;28;45476;-61
2022/01/04 09:09:50;;;;;;;;;8.25;6.75;;;;;11.02;74.61;99840.63;5073229;28;45414;-61
2022/01/04 09:12:18;;;;;;;;;7.00;6.50;;;;;11.01;75.02;99850.31;5075193;28;45398;-61
2022/01/04 09:14:57;;;;;;;;;5.00;5.00;;;;;11.02;74.97;99859.06;5070020;28;45241;-60
2022/01/04 09:20:10;;;;;;;;;5.50;4.25;;;;;11.05;74.68;99858.84;5073491;28;45717;-60
2022/01/04 09:22:36;;;;;;;;;2.00;2.00;;;;;11.04;74.30;99854.50;5073969;28;45355;-60
2022/01/04 09:25:02;;;;;;;;;3.75;3.00;;;;;10.98;74.37;99858.47;5072478;28;45263;-60
2022/01/04 09:27:29;;;;;;;;;1.00;1.00;;;;;10.97;74.38;99850.66;5069786;27;45429;-64
2022/01/04 09:29:55;;;;;;;;;1.50;1.50;;;;;10.94;73.96;99851.75;5071062;28;45299;-57
2022/01/04 09:32:21;;;;;;;;;2.00;1.00;;;;;10.92;73.95;99845.75;5073331;27;45331;-57
2022/01/04 09:34:47;;;;;;;;;6.50;3.00;;;;;10.96;74.71;99830.53;5073738;28;45467;-58
2022/01/04 09:37:13;;;;;;;;;1.00;1.00;;;;;11.00;74.26;99832.84;5070501;27;45323;-58
2022/01/04 09:39:39;;;;;;;;;7.25;2.00;;;;;11.05;74.42;99835.94;5074438;27;45315;-58
2022/01/04 09:42:07;;;;;;;;;3.00;1.25;;;;;11.07;73.99;99834.06;5071369;27;45779;-58
2022/01/04 09:44:34;;;;;;;;;2.00;0.25;;;;;11.08;74.00;99845.44;5074984;27;45407;-58
2022/01/04 09:47:02;;;;;;;;;0.00;0.00;;;;;11.08;73.65;99853.34;5072475;27;45248;-59
2022/01/04 09:49:29;;;;;;;;;1.00;1.00;;;;;11.12;73.81;99855.63;5073169;27;45761;-57
2022/01/04 09:51:56;;;;;;;;;1.00;1.00;;;;;11.14;73.48;99861.63;5069031;28;45954;-58
2022/01/04 09:54:23;;;;;;;;;0.25;0.25;;;;;11.19;73.64;99858.63;5068399;28;45556;-50
2022/01/04 09:56:50;;;;;;;;;2.00;1.00;;;;;11.22;73.80;99878.63;5069911;28;45600;-54
2022/01/04 09:59:16;;;;;;;;;1.00;1.00;;;;;11.24;73.59;99876.75;5068055;28;46054;-56
2022/01/04 10:01:45;;;;;;;;;1.50;1.00;;;;;11.25;73.89;99881.91;5069378;28;45530;-55
2022/01/04 10:04:12;;;;;;;;;2.00;1.00;;;;;11.29;73.77;99883.34;5069268;28;45544;-55
2022/01/04 10:06:39;;;;;;;;;1.75;1.75;;;;;11.34;73.56;99888.28;5071392;27;45468;-56
2022/01/04 10:09:12;;;;;;;;;1.00;0.00;;;;;11.34;73.34;99888.28;5070266;28;45466;-56
2022/01/04 10:11:43;;;;;;;;;2.50;0.50;;;;;11.35;73.38;99892.59;5075000;28;45542;-56
2022/01/04 10:14:26;;;;;;;;;1.00;1.00;;;;;11.40;73.24;99895.72;5068791;28;45456;-56
2022/01/04 10:16:54;;;;;;;;;3.50;1.00;;;;;11.42;73.39;99889.38;5067526;28;45406;-57
2022/01/04 10:19:41;;;;;;;;;2.00;1.00;;;;;11.46;73.68;99903.16;5067782;28;45917;-56
2022/01/04 10:22:25;;;;;;;;;3.00;1.25;;;;;11.47;73.16;99899.56;5067783;28;45711;-57
2022/01/04 10:25:13;;;;;;;;;1.25;1.00;;;;;11.50;72.95;99901.13;5067553;28;45449;-55
2022/01/04 10:27:51;;;;;;;;;2.00;0.75;;;;;11.51;72.83;99898.38;5068450;28;45486;-56
2022/01/04 10:30:28;;;;;;;;;1.25;0.50;;;;;11.54;72.67;99890.25;5069098;28;45399;-56
2022/01/04 10:32:55;;;;;;;;;1.00;1.00;;;;;11.58;72.54;99880.28;5069300;27;45389;-56
2022/01/04 10:35:29;;;;;;;;;2.25;0.00;;;;;11.59;72.05;99889.88;5070680;27;45822;-56
2022/01/04 10:38:00;;;;;;;;;1.00;1.00;;;;;11.59;72.56;99885.44;5069109;28;45635;-56
2022/01/04 10:40:28;;;;;;;;;2.00;2.00;;;;;11.62;72.78;99873.81;5075757;27;46400;-57
2022/01/04 10:42:54;;;;;;;;;4.00;2.00;;;;;11.67;72.64;99883.03;5069234;27;45483;-51
2022/01/04 10:45:25;;;;;;;;;2.75;2.75;;;;;11.71;72.73;99879.22;5068960;27;45394;-55
2022/01/04 10:47:51;;;;;;;;;1.25;1.25;;;;;11.76;72.34;99884.13;5060941;28;45278;-56
2022/01/04 10:50:45;;;;;;;;;2.50;1.00;;;;;11.77;72.10;99877.03;5060698;28;45381;-54
2022/01/04 10:53:29;;;;;;;;;1.00;1.00;;;;;11.81;72.31;99876.72;5067197;28;45454;-52
2022/01/04 10:55:58;;;;;;;;;1.00;1.00;;;;;11.80;72.10;99872.41;5063745;28;45417;-55
2022/01/04 10:58:36;;;;;;;;;1.25;1.25;;;;;11.78;72.04;99882.22;5068804;28;45264;-49
2022/01/04 11:01:07;;;;;;;;;1.00;1.00;;;;;11.82;72.07;99885.47;5072384;28;45591;-55
2022/01/04 11:03:36;;;;;;;;;3.50;1.00;;;;;11.83;72.04;99887.16;5071496;28;45441;-53
2022/01/04 11:06:07;;;;;;;;;2.50;1.00;;;;;11.86;71.81;99877.22;5076424;28;45440;-56
2022/01/04 11:08:34;;;;;;;;;0.25;0.25;;;;;11.87;72.08;99883.34;5068428;28;45516;-53
2022/01/04 11:10:59;;;;;;;;;1.75;1.00;;;;;11.88;72.12;99885.84;5068248;28;45919;-52
2022/01/04 11:13:25;;;;;;;;;2.00;2.00;;;;;11.88;72.23;99885.84;5065151;28;45421;-55
2022/01/04 11:15:51;;;;;;;;;1.25;1.00;;;;;11.90;72.10;99873.38;5067456;28;45478;-55
2022/01/04 11:18:18;;;;;;;;;1.00;1.00;;;;;11.91;72.16;99864.47;5065643;28;45438;-55
2022/01/04 11:20:45;;;;;;;;;2.75;2.00;;;;;11.90;71.97;99867.25;5070143;28;46035;-57
2022/01/04 11:23:12;;;;;;;;;1.50;1.50;;;;;11.91;72.02;99871.56;5071569;28;45823;-59
2022/01/04 11:25:41;;;;;;;;;1.00;1.00;;;;;11.88;71.90;99870.00;5071814;28;45458;-58
2022/01/04 11:28:09;;;;;;;;;1.00;1.00;;;;;11.86;72.40;99882.50;5072634;28;45591;-58
2022/01/04 11:30:39;;;;;;;;;4.25;2.00;;;;;11.84;71.96;99888.84;5071589;28;45557;-60
2022/01/04 11:33:16;;;;;;;;;1.50;1.00;;;;;11.84;72.34;99878.28;5070038;28;45392;-58
2022/01/04 11:35:41;;;;;;;;;2.75;1.00;;;;;11.87;72.23;99870.97;5067254;28;45564;-58
2022/01/04 11:38:06;;;;;;;;;1.25;1.25;;;;;11.90;72.33;99873.38;5070918;28;45782;-58
2022/01/04 11:40:39;;;;;;;;;0.75;0.75;;;;;11.94;72.14;99873.97;5066662;28;45650;-58
2022/01/04 11:43:24;;;;;;;;;1.25;1.25;;;;;12.00;72.40;99858.47;5064107;28;45410;-58